Decoded Metar for CYTL (BIG TROUT LAKE in ON, CANADA) (IATA:YTL) | Meteo·Mobile Aviation Weather
aviador You're here:

CYTL Decoded Metar

BIG TROUT LAKE in ON, CANADA
Report Time2018-12-10 15:00:00
UTC Time2018-12-10 15:24:31
Flight Rules lifr LIFR
WindCalm
Visibility4828 m
Phenomena:Light Snow
Clouds:Overcast 004 Hf
Expected CloudBase > 400 ft AGL from Temp-Dew spread
Ceiling400 ft
Temp-16°C (ISA -30)
Dew Point-17°C (92% RH)
AAT-19.5°C
QNH1013 hPa
Density Alt-2,979 ft
Elevation735 ft
Report Wrong Elevation
Raw Report
CYTL 101500Z AUTO 00000KT 3SM -SN OVC004 M16/M17 A2990 RMK
SLP149=

Extra information for CYTL:More info

Metar Taf Metar & Taf Last 4 Metars F.Rules Stats Wind Profile Meteogram Temp Stats Airport Information Weather charts Add Link Nearby VenuesMetar ALERT Operation Metar Decoded Social comments